Time;durP1;ratioP1;P1;durP2;ratioP2;P2;SDS_P1;SDS_P2;PMS_P1;PMS_P2;Temp;Humidity;BMP_temperature;BMP_pressure;BME280_temperature;BME280_humidity;BME280_pressure;Samples;Min_cycle;Max_cycle;Signal;HPM_P1;HPM_P2
2023/02/09 00:01:53;;;;;;;12.48;7.10;;;3.60;99.90;;;;;;6220227;23;20001;-81
2023/02/09 00:04:19;;;;;;;9.23;6.03;;;3.60;99.90;;;;;;6194811;23;20009;-81
2023/02/09 00:06:44;;;;;;;12.57;7.00;;;3.60;99.90;;;;;;6220867;23;20001;-81
2023/02/09 00:09:10;;;;;;;9.93;6.35;;;3.60;99.90;;;;;;6194263;23;20004;-81
2023/02/09 00:14:20;;;;;;;11.57;6.47;;;3.50;99.90;;;;;;6220707;23;20011;-81
2023/02/09 00:16:46;;;;;;;9.93;6.40;;;3.50;99.90;;;;;;6220612;23;20453;-80
2023/02/09 00:19:13;;;;;;;11.40;6.15;;;3.50;99.90;;;;;;6220155;23;20127;-81
2023/02/09 00:21:39;;;;;;;11.15;6.30;;;3.50;99.90;;;;;;6220774;23;20007;-80
2023/02/09 00:24:06;;;;;;;11.20;6.40;;;3.50;99.90;;;;;;6194549;23;20454;-81
2023/02/09 00:26:32;;;;;;;10.70;5.95;;;3.50;99.90;;;;;;6221218;23;20000;-81
2023/02/09 00:28:58;;;;;;;11.07;5.88;;;3.50;99.90;;;;;;6194633;23;20004;-81
2023/02/09 00:31:24;;;;;;;10.95;6.00;;;3.50;99.90;;;;;;6220433;23;20007;-81
2023/02/09 00:33:50;;;;;;;8.95;6.05;;;3.50;99.90;;;;;;6193575;23;20438;-80
2023/02/09 00:36:16;;;;;;;10.13;6.43;;;3.40;99.90;;;;;;6220345;23;20074;-81
2023/02/09 00:38:42;;;;;;;10.90;6.20;;;3.40;99.90;;;;;;6198765;23;20048;-80
2023/02/09 00:41:09;;;;;;;10.65;6.38;;;3.30;99.90;;;;;;6218388;23;20088;-80
2023/02/09 00:43:35;;;;;;;9.27;6.03;;;3.30;99.90;;;;;;6218874;23;20015;-81
2023/02/09 00:46:01;;;;;;;9.85;6.45;;;3.30;99.90;;;;;;6220420;23;20012;-82
2023/02/09 00:48:26;;;;;;;11.60;6.88;;;3.30;99.90;;;;;;6219929;23;20000;-81
2023/02/09 00:50:52;;;;;;;9.27;5.78;;;3.30;99.90;;;;;;6220970;23;20005;-81
2023/02/09 00:53:19;;;;;;;10.90;6.50;;;3.30;99.90;;;;;;6220930;23;20009;-81
2023/02/09 00:55:45;;;;;;;10.77;6.40;;;3.30;99.90;;;;;;6220690;23;20000;-81
2023/02/09 00:58:11;;;;;;;9.85;6.43;;;3.20;99.90;;;;;;6220740;23;20008;-81
2023/02/09 01:00:37;;;;;;;10.73;6.05;;;3.20;99.90;;;;;;6220634;23;20004;-81
2023/02/09 01:03:03;;;;;;;11.60;6.90;;;3.20;99.90;;;;;;6219224;23;20090;-81
2023/02/09 01:05:29;;;;;;;15.10;6.43;;;3.30;99.90;;;;;;6220371;23;20426;-80
2023/02/09 01:07:55;;;;;;;12.15;7.13;;;3.30;99.90;;;;;;6219493;23;20015;-81
2023/02/09 01:10:20;;;;;;;10.85;7.10;;;3.20;99.90;;;;;;6218519;23;20091;-82
2023/02/09 01:12:46;;;;;;;11.23;6.90;;;3.20;99.90;;;;;;6218910;23;20008;-81
2023/02/09 01:15:13;;;;;;;10.45;6.82;;;3.20;99.90;;;;;;6219026;23;20055;-81
2023/02/09 01:17:39;;;;;;;11.65;7.03;;;3.20;99.90;;;;;;6220562;23;20311;-81
2023/02/09 01:20:07;;;;;;;13.30;7.25;;;3.20;99.90;;;;;;6220243;23;20426;-81
2023/02/09 01:22:36;;;;;;;13.50;7.85;;;3.20;99.90;;;;;;6219431;23;20008;-81
2023/02/09 01:25:02;;;;;;;12.63;6.82;;;3.10;99.90;;;;;;6220044;23;19996;-81
2023/02/09 01:27:27;;;;;;;13.18;7.07;;;3.10;99.90;;;;;;6218166;23;20012;-81
2023/02/09 01:29:53;;;;;;;10.90;6.97;;;3.10;99.90;;;;;;6219505;23;20001;-81
2023/02/09 01:32:19;;;;;;;11.95;6.75;;;3.10;99.90;;;;;;6219870;23;20005;-80
2023/02/09 01:34:44;;;;;;;11.82;7.15;;;3.20;99.90;;;;;;6219379;23;20008;-80
2023/02/09 01:37:10;;;;;;;10.18;6.03;;;3.20;99.90;;;;;;6220186;23;20008;-81
2023/02/09 01:39:35;;;;;;;10.95;6.53;;;3.20;99.90;;;;;;6218539;23;20102;-80
2023/02/09 01:42:02;;;;;;;12.95;7.05;;;3.20;99.90;;;;;;6218882;23;20008;-80
2023/02/09 01:44:28;;;;;;;10.32;6.07;;;3.30;99.90;;;;;;6218614;23;20004;-81
2023/02/09 01:46:53;;;;;;;9.32;6.45;;;3.20;99.90;;;;;;6220376;23;20007;-80
2023/02/09 01:49:27;;;;;;;10.43;6.45;;;3.20;99.90;;;;;;6218882;23;20008;-80
2023/02/09 01:52:03;;;;;;;11.88;6.80;;;3.20;99.90;;;;;;6218982;23;20529;-80
2023/02/09 01:54:44;;;;;;;11.70;7.30;;;3.10;99.90;;;;;;6218946;23;20004;-80
2023/02/09 01:57:14;;;;;;;9.30;6.47;;;3.10;99.90;;;;;;6218920;23;20004;-80
2023/02/09 01:59:45;;;;;;;9.68;6.03;;;3.10;99.90;;;;;;6220512;23;20455;-81
2023/02/09 02:02:11;;;;;;;10.75;6.57;;;3.00;99.90;;;;;;6220151;23;20062;-81
2023/02/09 02:04:38;;;;;;;9.82;6.40;;;3.00;99.90;;;;;;6218345;23;20034;-81
2023/02/09 02:07:15;;;;;;;12.57;7.45;;;3.00;99.90;;;;;;6220306;23;20004;-80
2023/02/09 02:09:41;;;;;;;11.07;6.70;;;3.00;99.90;;;;;;6218580;23;20092;-80
2023/02/09 02:12:07;;;;;;;12.50;7.07;;;3.00;99.90;;;;;;6218587;23;20004;-80
2023/02/09 02:14:34;;;;;;;10.73;6.40;;;3.00;99.90;;;;;;6220087;23;19997;-78
2023/02/09 02:17:19;;;;;;;13.63;7.78;;;2.90;99.90;;;;;;6220074;23;19997;-80
2023/02/09 02:19:59;;;;;;;10.63;6.90;;;2.80;99.90;;;;;;6217971;23;20350;-80
2023/02/09 02:22:39;;;;;;;13.93;6.80;;;2.80;99.90;;;;;;6218202;23;20012;-80
2023/02/09 02:25:43;;;;;;;11.13;7.50;;;2.70;99.90;;;;;;6218691;23;20005;-81
2023/02/09 02:28:42;;;;;;;10.45;6.55;;;2.70;99.90;;;;;;6218700;23;20075;-80
2023/02/09 02:31:23;;;;;;;9.90;6.00;;;2.70;99.90;;;;;;6220202;23;20005;-80
2023/02/09 02:34:17;;;;;;;9.55;5.95;;;2.70;99.90;;;;;;6218050;23;20015;-81
2023/02/09 02:36:54;;;;;;;10.15;6.85;;;2.70;99.90;;;;;;6218058;23;20074;-80
2023/02/09 02:39:38;;;;;;;10.88;6.28;;;2.70;99.90;;;;;;6217774;23;20025;-80
2023/02/09 02:42:47;;;;;;;10.70;6.78;;;2.60;99.90;;;;;;6222322;23;20062;-80
2023/02/09 02:45:14;;;;;;;10.05;6.20;;;2.60;99.90;;;;;;6217262;23;20032;-80
2023/02/09 02:47:45;;;;;;;12.52;7.25;;;2.60;99.90;;;;;;6221898;23;20000;-80
2023/02/09 02:50:15;;;;;;;11.93;6.50;;;2.60;99.90;;;;;;6220432;23;20004;-81
2023/02/09 02:52:44;;;;;;;12.65;7.53;;;2.60;99.90;;;;;;6222081;23;20358;-81
2023/02/09 02:55:15;;;;;;;12.18;7.18;;;2.60;99.90;;;;;;6221118;23;20004;-80
2023/02/09 02:57:45;;;;;;;10.70;6.13;;;2.50;99.90;;;;;;6220890;23;20031;-80
2023/02/09 03:00:17;;;;;;;11.93;6.85;;;2.50;99.90;;;;;;6219222;23;20393;-79
2023/02/09 03:02:48;;;;;;;9.67;5.37;;;2.50;99.90;;;;;;6222063;23;20000;-79
2023/02/09 03:05:16;;;;;;;9.57;6.00;;;2.50;99.90;;;;;;6220376;23;20001;-79
2023/02/09 03:07:42;;;;;;;9.48;5.93;;;2.60;99.90;;;;;;6221769;23;20001;-79
2023/02/09 03:10:33;;;;;;;9.25;6.13;;;2.60;99.90;;;;;;6220161;23;20027;-80
2023/02/09 03:13:23;;;;;;;9.38;6.40;;;2.60;99.90;;;;;;6221043;23;20001;-80
2023/02/09 03:16:05;;;;;;;9.75;6.18;;;2.50;99.90;;;;;;6218709;23;20055;-81
2023/02/09 03:18:36;;;;;;;9.25;5.35;;;2.50;99.90;;;;;;6220701;23;20012;-80
2023/02/09 03:21:28;;;;;;;9.85;5.78;;;2.40;99.90;;;;;;6219623;23;20008;-79
2023/02/09 03:24:06;;;;;;;8.80;5.20;;;2.50;99.90;;;;;;6220270;23;20063;-80
2023/02/09 03:26:44;;;;;;;8.48;5.85;;;2.40;99.90;;;;;;6221684;23;20489;-79
2023/02/09 03:29:12;;;;;;;8.45;5.53;;;2.50;99.90;;;;;;6221750;23;20008;-80
2023/02/09 03:31:38;;;;;;;9.40;5.43;;;2.50;99.90;;;;;;6221650;23;20005;-79
2023/02/09 03:34:05;;;;;;;10.27;6.15;;;2.50;99.90;;;;;;6221754;23;20027;-80
2023/02/09 03:36:35;;;;;;;8.60;6.25;;;2.60;99.90;;;;;;6220264;23;20094;-80
2023/02/09 03:39:01;;;;;;;11.18;6.57;;;2.50;99.90;;;;;;6221518;23;20013;-79
2023/02/09 03:41:26;;;;;;;9.90;6.15;;;2.50;99.90;;;;;;6221441;23;20001;-79
2023/02/09 03:46:36;;;;;;;9.23;6.25;;;2.50;99.90;;;;;;6221301;23;20011;-79
2023/02/09 03:49:02;;;;;;;9.77;5.30;;;2.40;99.90;;;;;;6221435;23;20004;-79
2023/02/09 03:51:28;;;;;;;10.02;5.47;;;2.40;99.90;;;;;;6220954;23;20007;-79
2023/02/09 03:53:53;;;;;;;10.55;6.32;;;2.40;99.90;;;;;;6195150;23;20001;-80
2023/02/09 03:56:19;;;;;;;9.88;6.07;;;2.40;99.90;;;;;;6221655;23;19997;-80
2023/02/09 03:58:44;;;;;;;9.27;6.50;;;2.40;99.90;;;;;;6194956;23;20011;-81
2023/02/09 04:01:10;;;;;;;9.48;6.45;;;2.40;99.90;;;;;;6194857;23;20082;-80
2023/02/09 04:03:38;;;;;;;10.20;5.80;;;2.40;99.90;;;;;;6194583;23;20005;-80
2023/02/09 04:06:04;;;;;;;8.15;4.95;;;2.40;99.90;;;;;;6221417;23;20004;-80
2023/02/09 04:08:32;;;;;;;12.75;7.28;;;2.40;99.90;;;;;;6221441;23;20032;-81
2023/02/09 04:10:58;;;;;;;10.93;6.82;;;2.30;99.90;;;;;;6193228;23;20008;-79
2023/02/09 04:13:25;;;;;;;9.23;6.28;;;2.20;99.90;;;;;;6193825;23;20076;-79
2023/02/09 04:15:51;;;;;;;11.15;6.00;;;2.20;99.90;;;;;;6221427;23;20067;-82
2023/02/09 04:18:17;;;;;;;13.38;7.32;;;2.40;99.90;;;;;;6190474;23;20059;-82
2023/02/09 04:20:43;;;;;;;8.77;5.55;;;2.40;99.90;;;;;;6219244;23;20000;-81
2023/02/09 04:23:08;;;;;;;11.63;6.40;;;2.40;99.90;;;;;;6220513;23;20461;-80
2023/02/09 04:25:34;;;;;;;9.93;5.90;;;2.40;99.90;;;;;;6194197;23;20061;-81
2023/02/09 04:28:00;;;;;;;11.35;6.38;;;2.40;99.90;;;;;;6221315;23;20004;-81
2023/02/09 04:30:25;;;;;;;12.23;7.50;;;2.40;99.90;;;;;;6221361;23;20027;-80
2023/02/09 04:32:51;;;;;;;10.30;6.70;;;2.30;99.90;;;;;;6194564;23;20092;-78
2023/02/09 04:35:17;;;;;;;9.93;6.85;;;2.40;99.90;;;;;;6221021;23;20007;-78
2023/02/09 04:37:42;;;;;;;11.65;7.22;;;2.30;99.90;;;;;;6221172;23;19996;-79
2023/02/09 04:40:08;;;;;;;12.10;7.72;;;2.30;99.90;;;;;;6220824;23;20349;-79
2023/02/09 04:42:34;;;;;;;12.48;6.57;;;2.30;99.90;;;;;;6221534;23;20497;-79
2023/02/09 04:45:00;;;;;;;10.07;5.85;;;2.30;99.90;;;;;;6194780;23;20000;-79
2023/02/09 04:47:26;;;;;;;11.25;6.28;;;2.30;99.90;;;;;;6221061;23;20414;-80
2023/02/09 04:49:51;;;;;;;10.82;6.03;;;2.30;99.90;;;;;;6194037;23;20307;-79
2023/02/09 04:52:17;;;;;;;13.38;7.60;;;2.40;99.90;;;;;;6221173;23;20374;-78
2023/02/09 04:54:43;;;;;;;11.70;7.15;;;2.40;99.90;;;;;;6194391;23;20461;-79
2023/02/09 04:59:53;;;;;;;13.80;7.53;;;2.40;99.90;;;;;;6220772;23;20012;-78
2023/02/09 05:02:18;;;;;;;11.35;6.82;;;2.40;99.90;;;;;;6220608;23;20004;-78
2023/02/09 05:04:44;;;;;;;10.95;6.70;;;2.40;99.90;;;;;;6193556;23;20004;-79
2023/02/09 05:07:10;;;;;;;11.18;5.93;;;2.40;99.90;;;;;;6220646;23;20004;-79
2023/02/09 05:09:35;;;;;;;13.32;7.50;;;2.40;99.90;;;;;;6193684;23;20391;-79
2023/02/09 05:12:01;;;;;;;11.95;6.60;;;2.40;99.90;;;;;;6219749;23;20012;-79
2023/02/09 05:14:27;;;;;;;10.18;6.15;;;2.30;99.90;;;;;;6193489;23;20009;-78
2023/02/09 05:16:52;;;;;;;10.43;6.35;;;2.30;99.90;;;;;;6192929;23;20000;-78
2023/02/09 05:19:18;;;;;;;10.50;6.80;;;2.20;99.90;;;;;;6193276;23;20432;-78
2023/02/09 05:21:44;;;;;;;14.32;7.78;;;2.20;99.90;;;;;;6193607;23;20430;-78
2023/02/09 05:24:09;;;;;;;12.68;7.35;;;2.20;99.90;;;;;;6193606;23;20333;-79
2023/02/09 05:26:35;;;;;;;10.45;6.13;;;2.10;99.90;;;;;;6219691;23;20480;-78
2023/02/09 05:29:01;;;;;;;10.85;6.43;;;2.20;99.90;;;;;;6194128;23;20020;-78
2023/02/09 05:31:27;;;;;;;13.07;7.95;;;2.20;99.90;;;;;;6194054;23;20008;-77
2023/02/09 05:33:52;;;;;;;12.38;6.75;;;2.10;99.90;;;;;;6193616;23;20369;-77
2023/02/09 05:36:18;;;;;;;11.50;6.60;;;2.10;99.90;;;;;;6220438;23;19997;-78
2023/02/09 05:38:44;;;;;;;10.65;6.80;;;2.10;99.90;;;;;;6220590;23;20013;-77
2023/02/09 05:42:13;;;;;;;10.98;6.47;;;2.10;99.90;;;;;;6220506;23;20081;-77
2023/02/09 05:43:57;;;;;;;10.80;6.07;;;2.10;99.90;;;;;;6219543;23;20039;-78
2023/02/09 05:46:23;;;;;;;10.50;6.65;;;2.20;99.90;;;;;;6193705;23;20426;-78
2023/02/09 05:48:48;;;;;;;11.23;6.30;;;2.20;99.90;;;;;;6193426;23;20433;-78
2023/02/09 05:51:14;;;;;;;10.23;6.15;;;2.30;99.90;;;;;;6193409;23;20008;-78
2023/02/09 05:53:40;;;;;;;9.85;6.10;;;2.20;99.90;;;;;;6219593;23;20338;-78
2023/02/09 05:56:05;;;;;;;8.20;5.97;;;2.20;99.90;;;;;;6219618;23;20086;-78
2023/02/09 05:58:31;;;;;;;11.73;7.50;;;2.20;99.90;;;;;;6193004;23;20352;-81
2023/02/09 06:00:57;;;;;;;12.70;6.53;;;2.30;99.90;;;;;;6219484;23;20088;-81
2023/02/09 06:03:22;;;;;;;11.60;7.22;;;2.30;99.90;;;;;;6219462;23;20052;-81
2023/02/09 06:05:48;;;;;;;9.98;6.47;;;2.30;99.90;;;;;;6193507;23;20059;-80
2023/02/09 06:08:14;;;;;;;8.43;5.53;;;2.30;99.90;;;;;;6219323;23;20007;-80
2023/02/09 06:10:39;;;;;;;12.68;7.55;;;2.40;99.90;;;;;;6219549;23;20005;-80
2023/02/09 06:13:05;;;;;;;10.75;6.50;;;2.40;99.90;;;;;;6219517;23;20000;-80
2023/02/09 06:15:31;;;;;;;11.52;6.45;;;2.50;99.90;;;;;;6192901;23;20032;-81
2023/02/09 06:17:56;;;;;;;10.35;5.80;;;2.50;99.90;;;;;;6219296;23;19997;-80
2023/02/09 06:20:22;;;;;;;10.45;6.85;;;2.50;99.90;;;;;;6218993;23;20009;-80
2023/02/09 06:22:47;;;;;;;13.52;6.50;;;2.50;99.90;;;;;;6193134;23;20007;-79
2023/02/09 06:25:13;;;;;;;10.18;6.30;;;2.50;99.90;;;;;;6219377;23;20410;-79
2023/02/09 06:27:39;;;;;;;9.82;6.28;;;2.50;99.90;;;;;;6192609;23;20054;-80
2023/02/09 06:30:05;;;;;;;11.05;6.78;;;2.60;99.90;;;;;;6219975;23;19997;-81
2023/02/09 06:32:31;;;;;;;11.80;7.28;;;2.60;99.90;;;;;;6219287;23;20005;-80
2023/02/09 06:34:56;;;;;;;9.90;6.45;;;2.60;99.90;;;;;;6219610;23;20024;-80
2023/02/09 06:37:22;;;;;;;10.73;6.15;;;2.60;99.90;;;;;;6219846;23;19997;-79
2023/02/09 06:39:47;;;;;;;11.05;6.72;;;2.60;99.90;;;;;;6219639;23;20012;-80
2023/02/09 06:42:13;;;;;;;11.70;7.53;;;2.50;99.90;;;;;;6219158;23;20001;-80
2023/02/09 06:44:39;;;;;;;11.13;7.07;;;2.50;99.90;;;;;;6219938;23;20007;-79
2023/02/09 06:47:04;;;;;;;17.25;8.27;;;2.30;99.90;;;;;;6219496;23;20028;-79
2023/02/09 06:49:30;;;;;;;11.57;6.55;;;2.30;99.90;;;;;;6193203;23;20061;-80
2023/02/09 06:51:56;;;;;;;10.82;6.97;;;2.30;99.90;;;;;;6193010;23;20024;-80
2023/02/09 06:54:21;;;;;;;11.38;6.82;;;2.30;99.90;;;;;;6192319;23;20019;-80
2023/02/09 06:56:47;;;;;;;9.98;6.47;;;2.40;99.90;;;;;;6192628;23;20001;-81
2023/02/09 06:59:13;;;;;;;9.43;5.30;;;2.40;99.90;;;;;;6193149;23;20001;-82
2023/02/09 07:01:39;;;;;;;8.48;5.80;;;2.40;99.90;;;;;;6191916;23;20092;-80
2023/02/09 07:04:04;;;;;;;10.45;6.05;;;2.50;99.90;;;;;;6193230;23;20091;-80
2023/02/09 07:06:30;;;;;;;11.35;6.85;;;2.40;99.90;;;;;;6219832;23;20006;-80
2023/02/09 07:08:56;;;;;;;11.70;6.35;;;2.40;99.90;;;;;;6220206;23;20377;-80
2023/02/09 07:11:21;;;;;;;11.00;6.03;;;2.50;99.90;;;;;;6218554;23;20075;-80
2023/02/09 07:13:47;;;;;;;12.27;7.00;;;2.50;99.90;;;;;;6192525;23;20001;-80
2023/02/09 07:16:13;;;;;;;10.13;6.75;;;2.40;99.90;;;;;;6219473;23;20028;-79
2023/02/09 07:18:40;;;;;;;10.77;6.55;;;2.40;99.90;;;;;;6219326;23;19997;-79
2023/02/09 07:21:10;;;;;;;9.57;6.43;;;2.50;99.90;;;;;;6219328;23;20013;-80
2023/02/09 07:23:36;;;;;;;12.32;6.40;;;2.60;99.90;;;;;;6193070;23;20009;-81
2023/02/09 07:26:09;;;;;;;9.60;5.68;;;2.60;99.90;;;;;;6219567;23;20131;-82
2023/02/09 07:28:36;;;;;;;10.02;6.47;;;2.60;99.90;;;;;;6221633;23;20004;-77
2023/02/09 07:31:06;;;;;;;9.88;6.25;;;2.60;99.90;;;;;;6221590;23;20024;-80
2023/02/09 07:33:32;;;;;;;9.80;6.32;;;2.60;99.90;;;;;;6193437;23;20001;-81
2023/02/09 07:35:58;;;;;;;9.80;6.25;;;2.70;99.90;;;;;;6194144;23;20480;-80
2023/02/09 07:38:24;;;;;;;8.05;5.30;;;2.70;99.90;;;;;;6195946;23;20012;-81
2023/02/09 07:40:49;;;;;;;10.57;6.20;;;2.80;99.90;;;;;;6220368;23;20011;-79
2023/02/09 07:43:15;;;;;;;8.98;5.95;;;2.80;99.90;;;;;;6219260;23;20020;-78
2023/02/09 07:45:41;;;;;;;8.95;6.40;;;2.80;99.90;;;;;;6221183;23;20008;-77
2023/02/09 07:48:08;;;;;;;9.73;5.95;;;2.80;99.90;;;;;;6218935;23;20396;-78
2023/02/09 07:50:34;;;;;;;7.28;5.20;;;2.90;99.90;;;;;;6221205;23;20036;-81
2023/02/09 07:52:59;;;;;;;9.77;7.03;;;2.90;99.90;;;;;;6220703;23;20060;-77
2023/02/09 07:55:25;;;;;;;11.23;6.45;;;2.90;99.90;;;;;;6220971;23;20084;-78
2023/02/09 07:57:51;;;;;;;9.95;6.50;;;2.90;99.90;;;;;;6220339;23;20001;-79
2023/02/09 08:00:18;;;;;;;10.63;6.40;;;2.90;99.90;;;;;;6220765;23;20064;-79
2023/02/09 08:02:44;;;;;;;11.43;6.28;;;3.00;99.90;;;;;;6220973;23;20001;-76
2023/02/09 08:05:18;;;;;;;11.65;7.50;;;3.00;99.90;;;;;;6218597;23;20004;-78
2023/02/09 08:07:44;;;;;;;9.43;6.40;;;3.00;99.90;;;;;;6219070;23;20334;-79
2023/02/09 08:10:10;;;;;;;11.10;7.88;;;3.10;99.90;;;;;;6219085;23;20008;-79
2023/02/09 08:15:22;;;;;;;10.70;7.28;;;3.10;99.90;;;;;;6220552;23;20015;-72
2023/02/09 08:17:51;;;;;;;14.70;8.73;;;3.20;99.90;;;;;;6219695;23;20000;-71
2023/02/09 08:20:22;;;;;;;15.07;9.07;;;3.20;99.90;;;;;;6220073;23;20382;-73
2023/02/09 08:22:50;;;;;;;12.13;8.02;;;3.20;99.90;;;;;;6220718;23;20001;-72
2023/02/09 08:25:18;;;;;;;12.57;7.53;;;3.30;99.90;;;;;;6218900;23;20386;-73
2023/02/09 08:27:44;;;;;;;12.90;8.02;;;3.30;99.90;;;;;;6220172;23;20007;-72
2023/02/09 08:30:13;;;;;;;13.95;7.68;;;3.40;99.90;;;;;;6220271;23;20051;-72
2023/02/09 08:32:39;;;;;;;14.70;8.88;;;3.40;99.90;;;;;;6219675;23;20001;-71
2023/02/09 08:35:05;;;;;;;12.40;8.05;;;3.50;99.90;;;;;;6219187;23;20288;-71
2023/02/09 08:37:30;;;;;;;15.45;8.23;;;3.60;99.90;;;;;;6218224;23;20004;-71
2023/02/09 08:39:56;;;;;;;14.15;8.60;;;3.60;99.90;;;;;;6218346;23;20022;-71
2023/02/09 08:42:22;;;;;;;14.27;7.90;;;3.70;99.90;;;;;;6220547;23;20055;-71
2023/02/09 08:44:47;;;;;;;11.77;7.55;;;3.70;99.90;;;;;;6219876;23;20001;-71
2023/02/09 08:47:13;;;;;;;11.50;7.57;;;3.80;99.90;;;;;;6219904;23;20005;-72
2023/02/09 08:49:40;;;;;;;14.00;7.30;;;3.80;99.90;;;;;;6218758;23;20012;-72
2023/02/09 08:52:07;;;;;;;13.00;8.07;;;3.90;99.90;;;;;;6220775;23;20084;-73
2023/02/09 08:54:33;;;;;;;12.85;7.85;;;3.90;99.90;;;;;;6220974;23;20422;-72
2023/02/09 08:56:59;;;;;;;14.50;8.00;;;3.90;99.90;;;;;;6219243;23;20080;-73
2023/02/09 08:59:25;;;;;;;13.95;8.00;;;4.00;99.90;;;;;;6220871;23;19996;-73
2023/02/09 09:01:50;;;;;;;12.10;8.57;;;4.00;99.90;;;;;;6218857;23;20011;-73
2023/02/09 09:04:16;;;;;;;11.20;8.00;;;4.00;99.90;;;;;;6220860;23;20389;-73
2023/02/09 09:06:41;;;;;;;11.73;7.80;;;4.10;99.90;;;;;;6220632;23;20004;-73
2023/02/09 09:09:07;;;;;;;16.73;9.13;;;4.10;99.90;;;;;;6219131;23;20005;-73
2023/02/09 09:11:33;;;;;;;12.90;8.38;;;4.10;99.90;;;;;;6220437;23;20008;-73
2023/02/09 09:13:58;;;;;;;15.15;9.32;;;4.20;99.90;;;;;;6218845;23;20154;-72
2023/02/09 09:16:24;;;;;;;15.02;8.43;;;4.10;99.90;;;;;;6220613;23;19997;-73
2023/02/09 09:18:49;;;;;;;16.02;8.45;;;4.20;99.90;;;;;;6220411;23;20104;-73
2023/02/09 09:21:17;;;;;;;14.63;9.00;;;4.20;99.90;;;;;;6219293;23;20457;-73
2023/02/09 09:23:44;;;;;;;14.13;9.10;;;4.20;99.90;;;;;;6219108;23;20011;-73
2023/02/09 09:26:10;;;;;;;17.05;9.27;;;4.30;99.90;;;;;;6219153;23;20441;-73
2023/02/09 09:28:36;;;;;;;15.85;9.50;;;4.30;99.90;;;;;;6219189;23;20043;-74
2023/02/09 09:31:13;;;;;;;14.38;8.60;;;4.40;99.90;;;;;;6220844;23;20004;-73
2023/02/09 09:33:39;;;;;;;16.00;9.40;;;4.50;99.90;;;;;;6220329;23;20028;-73
2023/02/09 09:36:06;;;;;;;15.77;10.20;;;4.60;99.90;;;;;;6220227;23;20425;-73
2023/02/09 09:38:33;;;;;;;17.25;9.25;;;4.70;99.90;;;;;;6220447;23;20468;-73
2023/02/09 09:40:58;;;;;;;16.00;9.73;;;4.80;99.90;;;;;;6194011;23;20068;-73
2023/02/09 09:43:39;;;;;;;17.75;10.55;;;5.00;99.90;;;;;;6220769;23;20449;-73
2023/02/09 09:46:12;;;;;;;20.98;9.93;;;5.10;99.90;;;;;;6193730;23;20328;-73
2023/02/09 09:48:49;;;;;;;20.95;9.32;;;5.20;99.90;;;;;;6219910;23;20091;-73
2023/02/09 09:51:25;;;;;;;18.58;9.85;;;5.20;99.90;;;;;;6220161;23;20008;-73
2023/02/09 09:53:53;;;;;;;17.60;10.52;;;5.40;99.90;;;;;;6220609;23;20007;-73
2023/02/09 09:56:20;;;;;;;15.73;10.15;;;5.40;99.90;;;;;;6220324;23;20436;-73
2023/02/09 09:58:47;;;;;;;16.77;10.55;;;5.50;99.90;;;;;;6220563;23;20426;-73
2023/02/09 10:01:15;;;;;;;21.67;12.77;;;5.50;99.90;;;;;;6219516;23;20315;-73
2023/02/09 10:03:41;;;;;;;19.27;11.88;;;5.60;99.90;;;;;;6219728;23;20007;-73
2023/02/09 10:06:20;;;;;;;19.30;11.75;;;5.70;99.90;;;;;;6219930;23;20024;-73
2023/02/09 10:08:58;;;;;;;26.77;12.60;;;5.70;99.90;;;;;;6193605;23;20008;-73
2023/02/09 10:11:35;;;;;;;26.63;11.93;;;5.70;99.90;;;;;;6193468;23;20008;-73
2023/02/09 10:14:01;;;;;;;20.60;10.98;;;5.80;99.90;;;;;;6220424;23;20008;-73
2023/02/09 10:16:36;;;;;;;18.08;10.63;;;5.90;99.90;;;;;;6193453;23;20005;-73
2023/02/09 10:19:24;;;;;;;19.75;10.93;;;5.90;99.90;;;;;;6193121;23;20009;-73
2023/02/09 10:21:51;;;;;;;17.55;10.73;;;6.00;99.90;;;;;;6193603;23;20457;-73
2023/02/09 10:24:31;;;;;;;20.67;11.68;;;6.00;99.90;;;;;;6193440;23;20090;-73
2023/02/09 10:27:25;;;;;;;18.70;11.27;;;6.00;99.90;;;;;;6220366;23;20001;-73
2023/02/09 10:29:50;;;;;;;18.80;11.73;;;6.00;99.90;;;;;;6219993;23;20009;-73
2023/02/09 10:32:20;;;;;;;17.52;10.55;;;6.00;99.90;;;;;;6220012;23;20004;-73
2023/02/09 10:34:52;;;;;;;18.73;11.40;;;6.10;99.90;;;;;;6220075;23;20375;-73
2023/02/09 10:37:36;;;;;;;18.08;11.63;;;6.10;99.90;;;;;;6193251;23;20525;-73
2023/02/09 10:40:25;;;;;;;20.40;11.93;;;6.10;99.90;;;;;;6219983;23;20504;-73
2023/02/09 10:42:58;;;;;;;19.00;10.48;;;6.10;99.90;;;;;;6220241;23;20004;-73
2023/02/09 10:45:43;;;;;;;18.38;11.50;;;6.20;99.90;;;;;;6220241;23;20026;-73
2023/02/09 10:48:12;;;;;;;16.80;10.05;;;6.20;99.90;;;;;;6193141;23;20004;-73
2023/02/09 10:50:58;;;;;;;17.77;10.75;;;6.30;99.90;;;;;;6193396;23;20005;-73
2023/02/09 10:53:40;;;;;;;19.10;10.48;;;6.30;99.90;;;;;;6193196;23;20004;-73
2023/02/09 10:56:15;;;;;;;16.40;10.55;;;6.40;99.90;;;;;;6219949;23;20001;-73
2023/02/09 10:58:47;;;;;;;14.77;9.65;;;6.40;99.90;;;;;;6193029;23;20016;-73
2023/02/09 11:01:18;;;;;;;16.58;10.52;;;6.40;99.90;;;;;;6219697;23;20043;-70
2023/02/09 11:03:59;;;;;;;15.93;10.38;;;6.50;99.90;;;;;;6221485;23;20000;-73
2023/02/09 11:06:26;;;;;;;16.88;10.95;;;6.60;99.90;;;;;;6195020;23;20024;-74
2023/02/09 11:09:04;;;;;;;16.40;10.10;;;6.60;99.90;;;;;;6195167;23;20377;-73
2023/02/09 11:11:36;;;;;;;16.17;10.38;;;6.60;99.90;;;;;;6194702;23;20395;-73
2023/02/09 11:14:09;;;;;;;17.63;10.65;;;6.60;99.90;;;;;;6195414;23;20076;-73
2023/02/09 11:16:37;;;;;;;15.30;10.27;;;6.60;99.90;;;;;;6221859;23;20007;-73
2023/02/09 11:19:28;;;;;;;18.92;10.65;;;6.50;99.90;;;;;;6221497;23;20437;-73
2023/02/09 11:21:53;;;;;;;16.42;10.02;;;6.50;99.90;;;;;;6195040;23;20004;-73
2023/02/09 11:24:38;;;;;;;15.18;9.65;;;6.50;99.90;;;;;;6194507;23;20005;-73
2023/02/09 11:27:08;;;;;;;12.95;8.80;;;6.50;99.90;;;;;;6220721;23;20011;-76
2023/02/09 11:30:00;;;;;;;15.30;9.73;;;6.50;99.90;;;;;;6221432;23;20004;-76
2023/02/09 11:32:53;;;;;;;15.15;9.60;;;6.50;99.90;;;;;;6212459;23;20430;-75
2023/02/09 11:35:24;;;;;;;15.50;9.20;;;6.50;99.90;;;;;;6221167;23;20011;-73
2023/02/09 11:37:55;;;;;;;11.18;8.02;;;6.50;99.90;;;;;;6221497;23;19996;-75
2023/02/09 11:40:30;;;;;;;16.63;8.93;;;6.50;99.90;;;;;;6194410;23;20012;-76
2023/02/09 11:43:11;;;;;;;14.95;8.40;;;6.60;99.90;;;;;;6194523;23;20005;-73
2023/02/09 11:45:49;;;;;;;12.05;8.32;;;6.70;99.90;;;;;;6220587;23;20075;-73
2023/02/09 11:48:29;;;;;;;14.73;8.35;;;6.80;99.90;;;;;;6193831;23;20007;-73
2023/02/09 11:51:18;;;;;;;11.70;8.00;;;6.80;99.90;;;;;;6221404;23;20005;-73
2023/02/09 11:53:58;;;;;;;11.88;7.55;;;6.90;99.90;;;;;;6221785;23;19997;-76
2023/02/09 11:56:25;;;;;;;11.10;6.97;;;6.90;99.90;;;;;;6221597;23;20389;-73
2023/02/09 11:58:59;;;;;;;13.70;7.82;;;6.90;99.90;;;;;;6221464;23;20330;-73
2023/02/09 12:01:25;;;;;;;9.80;7.28;;;6.90;99.90;;;;;;6221362;23;20054;-73
2023/02/09 12:04:19;;;;;;;13.00;8.23;;;6.90;99.90;;;;;;6193634;23;20004;-74
2023/02/09 12:07:09;;;;;;;13.57;7.40;;;7.00;99.90;;;;;;6193297;23;20012;-74
2023/02/09 12:09:53;;;;;;;10.38;7.03;;;7.20;99.90;;;;;;6220769;23;20000;-73
2023/02/09 12:12:36;;;;;;;7.75;5.82;;;7.50;99.90;;;;;;6220003;23;20071;-73
2023/02/09 12:15:11;;;;;;;9.65;6.47;;;7.70;99.90;;;;;;6194133;23;20001;-73
2023/02/09 12:17:45;;;;;;;11.20;6.82;;;7.80;99.90;;;;;;6220257;23;19996;-72
2023/02/09 12:20:43;;;;;;;8.30;6.10;;;7.90;99.90;;;;;;6194075;23;20001;-73
2023/02/09 12:23:37;;;;;;;7.65;5.47;;;8.00;99.90;;;;;;6193555;23;20009;-72
2023/02/09 12:26:02;;;;;;;8.10;6.22;;;8.10;99.90;;;;;;6220719;23;20051;-72
2023/02/09 12:28:31;;;;;;;10.27;6.38;;;8.20;99.90;;;;;;6221492;23;20422;-73
2023/02/09 12:31:06;;;;;;;12.93;7.43;;;8.20;99.90;;;;;;6220815;23;20035;-72
2023/02/09 12:33:37;;;;;;;10.07;6.78;;;8.20;99.90;;;;;;6193404;23;20387;-73
2023/02/09 12:36:09;;;;;;;10.70;7.28;;;8.30;99.90;;;;;;6220255;23;20011;-72
2023/02/09 12:38:50;;;;;;;11.45;7.15;;;8.20;99.90;;;;;;6219925;23;20008;-72
2023/02/09 12:41:17;;;;;;;10.63;7.22;;;8.20;99.90;;;;;;6220384;23;20000;-72
2023/02/09 12:43:44;;;;;;;10.60;6.53;;;8.30;99.90;;;;;;6193540;23;20342;-72
2023/02/09 12:46:21;;;;;;;10.30;7.15;;;8.30;99.90;;;;;;6219977;23;20008;-73
2023/02/09 12:49:10;;;;;;;11.82;6.95;;;8.40;99.90;;;;;;6219494;23;20072;-73
2023/02/09 12:51:45;;;;;;;11.98;7.32;;;8.40;99.90;;;;;;6193600;23;20013;-72
2023/02/09 12:54:44;;;;;;;9.50;6.97;;;8.40;99.90;;;;;;6221123;23;20001;-72
2023/02/09 12:57:16;;;;;;;10.73;7.28;;;8.50;99.90;;;;;;6194044;23;20001;-72
2023/02/09 12:59:59;;;;;;;11.50;7.68;;;8.50;99.90;;;;;;6220969;23;20308;-72
2023/02/09 13:02:48;;;;;;;10.10;7.15;;;8.50;99.90;;;;;;6220639;23;20027;-72
2023/02/09 13:05:28;;;;;;;10.52;7.07;;;8.60;99.90;;;;;;6192665;23;20066;-72
2023/02/09 13:08:14;;;;;;;9.52;6.88;;;8.50;99.90;;;;;;6219872;23;20092;-72
2023/02/09 13:11:05;;;;;;;8.80;5.95;;;8.60;99.90;;;;;;6219592;23;20020;-73
2023/02/09 13:13:31;;;;;;;10.00;5.75;;;8.60;99.90;;;;;;6219511;23;19996;-73
2023/02/09 13:15:59;;;;;;;10.13;5.95;;;8.60;99.90;;;;;;6219850;23;20422;-72